sensor_id;sensor_type;location;lat;lon;timestamp;temperature;humidity
72128;DHT22;60000;51.030;7.024;2023-02-15T00:01:23;2.84;82.90
72128;DHT22;60000;51.030;7.024;2023-02-15T00:03:49;2.77;82.96
72128;DHT22;60000;51.030;7.024;2023-02-15T00:06:15;2.74;83.51
72128;DHT22;60000;51.030;7.024;2023-02-15T00:08:40;2.70;83.83
72128;DHT22;60000;51.030;7.024;2023-02-15T00:11:15;2.74;83.88
72128;DHT22;60000;51.030;7.024;2023-02-15T00:13:41;2.70;83.87
72128;DHT22;60000;51.030;7.024;2023-02-15T00:16:11;2.64;83.70
72128;DHT22;60000;51.030;7.024;2023-02-15T00:18:40;2.60;83.67
72128;DHT22;60000;51.030;7.024;2023-02-15T00:21:07;2.56;83.78
72128;DHT22;60000;51.030;7.024;2023-02-15T00:23:34;2.53;83.59
72128;DHT22;60000;51.030;7.024;2023-02-15T00:26:10;2.47;83.90
72128;DHT22;60000;51.030;7.024;2023-02-15T00:28:36;2.43;84.31
72128;DHT22;60000;51.030;7.024;2023-02-15T00:31:09;2.46;84.60
72128;DHT22;60000;51.030;7.024;2023-02-15T00:33:36;2.47;84.74
72128;DHT22;60000;51.030;7.024;2023-02-15T00:36:02;2.45;84.54
72128;DHT22;60000;51.030;7.024;2023-02-15T00:38:28;2.42;84.57
72128;DHT22;60000;51.030;7.024;2023-02-15T00:40:54;2.37;84.42
72128;DHT22;60000;51.030;7.024;2023-02-15T00:43:20;2.29;84.56
72128;DHT22;60000;51.030;7.024;2023-02-15T00:45:46;2.26;84.71
72128;DHT22;60000;51.030;7.024;2023-02-15T00:48:11;2.30;85.08
72128;DHT22;60000;51.030;7.024;2023-02-15T00:50:36;2.26;85.22
72128;DHT22;60000;51.030;7.024;2023-02-15T00:53:02;2.26;85.35
72128;DHT22;60000;51.030;7.024;2023-02-15T00:55:27;2.26;85.35
72128;DHT22;60000;51.030;7.024;2023-02-15T00:57:53;2.25;85.51
72128;DHT22;60000;51.030;7.024;2023-02-15T01:00:18;2.19;84.95
72128;DHT22;60000;51.030;7.024;2023-02-15T01:02:43;2.12;84.84
72128;DHT22;60000;51.030;7.024;2023-02-15T01:05:09;2.08;85.08
72128;DHT22;60000;51.030;7.024;2023-02-15T01:07:34;2.01;84.93
72128;DHT22;60000;51.030;7.024;2023-02-15T01:09:59;2.04;85.67
72128;DHT22;60000;51.030;7.024;2023-02-15T01:12:24;2.04;85.80
72128;DHT22;60000;51.030;7.024;2023-02-15T01:14:50;2.05;85.89
72128;DHT22;60000;51.030;7.024;2023-02-15T01:17:15;2.04;85.93
72128;DHT22;60000;51.030;7.024;2023-02-15T01:19:40;2.02;86.04
72128;DHT22;60000;51.030;7.024;2023-02-15T01:22:06;1.99;85.95
72128;DHT22;60000;51.030;7.024;2023-02-15T01:24:31;1.97;86.03
72128;DHT22;60000;51.030;7.024;2023-02-15T01:26:56;1.95;86.02
72128;DHT22;60000;51.030;7.024;2023-02-15T01:29:22;1.89;85.81
72128;DHT22;60000;51.030;7.024;2023-02-15T01:31:47;1.85;85.97
72128;DHT22;60000;51.030;7.024;2023-02-15T01:34:12;1.87;86.47
72128;DHT22;60000;51.030;7.024;2023-02-15T01:36:38;1.84;86.44
72128;DHT22;60000;51.030;7.024;2023-02-15T01:39:03;1.85;86.41
72128;DHT22;60000;51.030;7.024;2023-02-15T01:41:28;1.79;86.61
72128;DHT22;60000;51.030;7.024;2023-02-15T01:44:02;1.75;86.60
72128;DHT22;60000;51.030;7.024;2023-02-15T01:46:32;1.71;86.36
72128;DHT22;60000;51.030;7.024;2023-02-15T01:49:07;1.70;86.32
72128;DHT22;60000;51.030;7.024;2023-02-15T01:51:34;1.67;86.83
72128;DHT22;60000;51.030;7.024;2023-02-15T01:54:07;1.64;86.63
72128;DHT22;60000;51.030;7.024;2023-02-15T01:56:35;1.61;87.05
72128;DHT22;60000;51.030;7.024;2023-02-15T01:59:06;1.58;86.89
72128;DHT22;60000;51.030;7.024;2023-02-15T02:01:33;1.58;87.10
72128;DHT22;60000;51.030;7.024;2023-02-15T02:06:30;1.60;87.40
72128;DHT22;60000;51.030;7.024;2023-02-15T02:08:57;1.57;87.54
72128;DHT22;60000;51.030;7.024;2023-02-15T02:11:22;1.57;87.62
72128;DHT22;60000;51.030;7.024;2023-02-15T02:13:49;1.54;87.25
72128;DHT22;60000;51.030;7.024;2023-02-15T02:16:27;1.50;87.33
72128;DHT22;60000;51.030;7.024;2023-02-15T02:19:17;1.51;87.38
72128;DHT22;60000;51.030;7.024;2023-02-15T02:27:44;1.39;87.46
72128;DHT22;60000;51.030;7.024;2023-02-15T02:43:56;1.32;88.08
72128;DHT22;60000;51.030;7.024;2023-02-15T02:46:36;1.26;88.16
72128;DHT22;60000;51.030;7.024;2023-02-15T02:49:02;1.26;88.27
72128;DHT22;60000;51.030;7.024;2023-02-15T02:51:27;1.23;88.35
72128;DHT22;60000;51.030;7.024;2023-02-15T02:53:55;1.20;88.29
72128;DHT22;60000;51.030;7.024;2023-02-15T02:56:37;1.17;88.49
72128;DHT22;60000;51.030;7.024;2023-02-15T02:59:10;1.12;88.27
72128;DHT22;60000;51.030;7.024;2023-02-15T03:01:44;1.12;88.38
72128;DHT22;60000;51.030;7.024;2023-02-15T03:04:14;1.09;88.63
72128;DHT22;60000;51.030;7.024;2023-02-15T03:06:53;1.06;88.76
72128;DHT22;60000;51.030;7.024;2023-02-15T03:09:30;1.02;88.51
72128;DHT22;60000;51.030;7.024;2023-02-15T03:12:00;0.99;88.66
72128;DHT22;60000;51.030;7.024;2023-02-15T03:14:27;0.96;88.49
72128;DHT22;60000;51.030;7.024;2023-02-15T03:16:53;0.92;88.55
72128;DHT22;60000;51.030;7.024;2023-02-15T03:19:24;0.89;88.57
72128;DHT22;60000;51.030;7.024;2023-02-15T03:21:56;0.86;88.65
72128;DHT22;60000;51.030;7.024;2023-02-15T03:24:26;0.85;88.89
72128;DHT22;60000;51.030;7.024;2023-02-15T03:26:54;0.81;88.93
72128;DHT22;60000;51.030;7.024;2023-02-15T03:29:24;0.81;88.78
72128;DHT22;60000;51.030;7.024;2023-02-15T03:31:56;0.76;88.98
72128;DHT22;60000;51.030;7.024;2023-02-15T03:34:23;0.74;89.07
72128;DHT22;60000;51.030;7.024;2023-02-15T03:39:34;0.72;89.56
72128;DHT22;60000;51.030;7.024;2023-02-15T03:42:11;0.75;89.45
72128;DHT22;60000;51.030;7.024;2023-02-15T03:44:49;0.69;89.23
72128;DHT22;60000;51.030;7.024;2023-02-15T03:47:19;0.67;89.12
72128;DHT22;60000;51.030;7.024;2023-02-15T03:49:53;0.64;89.08
72128;DHT22;60000;51.030;7.024;2023-02-15T03:52:21;0.61;89.39
72128;DHT22;60000;51.030;7.024;2023-02-15T03:54:47;0.64;89.61
72128;DHT22;60000;51.030;7.024;2023-02-15T03:57:25;0.62;89.90
72128;DHT22;60000;51.030;7.024;2023-02-15T04:00:16;0.65;89.85
72128;DHT22;60000;51.030;7.024;2023-02-15T04:05:41;0.60;89.56
72128;DHT22;60000;51.030;7.024;2023-02-15T04:08:08;0.54;89.40
72128;DHT22;60000;51.030;7.024;2023-02-15T04:10:33;0.53;89.66
72128;DHT22;60000;51.030;7.024;2023-02-15T04:13:18;0.50;89.60
72128;DHT22;60000;51.030;7.024;2023-02-15T04:15:44;0.47;89.69
72128;DHT22;60000;51.030;7.024;2023-02-15T04:18:39;0.48;90.07
72128;DHT22;60000;51.030;7.024;2023-02-15T04:21:24;0.50;89.91
72128;DHT22;60000;51.030;7.024;2023-02-15T04:24:09;0.51;90.37
72128;DHT22;60000;51.030;7.024;2023-02-15T04:26:53;0.53;90.22
72128;DHT22;60000;51.030;7.024;2023-02-15T04:29:20;0.50;89.95
72128;DHT22;60000;51.030;7.024;2023-02-15T04:31:46;0.50;90.35
72128;DHT22;60000;51.030;7.024;2023-02-15T04:34:11;0.47;90.04
72128;DHT22;60000;51.030;7.024;2023-02-15T04:36:38;0.48;90.24
72128;DHT22;60000;51.030;7.024;2023-02-15T04:39:04;0.48;90.33
72128;DHT22;60000;51.030;7.024;2023-02-15T04:41:29;0.46;90.24
72128;DHT22;60000;51.030;7.024;2023-02-15T04:43:55;0.46;90.32
72128;DHT22;60000;51.030;7.024;2023-02-15T04:46:20;0.46;90.33
72128;DHT22;60000;51.030;7.024;2023-02-15T04:48:45;0.41;90.11
72128;DHT22;60000;51.030;7.024;2023-02-15T04:51:11;0.34;89.94
72128;DHT22;60000;51.030;7.024;2023-02-15T04:53:36;0.33;89.88
72128;DHT22;60000;51.030;7.024;2023-02-15T04:56:02;0.30;90.11
72128;DHT22;60000;51.030;7.024;2023-02-15T04:58:27;0.28;90.37
72128;DHT22;60000;51.030;7.024;2023-02-15T05:00:56;0.26;90.20
72128;DHT22;60000;51.030;7.024;2023-02-15T05:03:22;0.26;90.45
72128;DHT22;60000;51.030;7.024;2023-02-15T05:05:47;0.30;90.73
72128;DHT22;60000;51.030;7.024;2023-02-15T05:08:12;0.27;90.81
72128;DHT22;60000;51.030;7.024;2023-02-15T05:10:38;0.28;90.93
72128;DHT22;60000;51.030;7.024;2023-02-15T05:13:03;0.28;90.86
72128;DHT22;60000;51.030;7.024;2023-02-15T05:15:28;0.28;90.65
72128;DHT22;60000;51.030;7.024;2023-02-15T05:17:53;0.26;90.39
72128;DHT22;60000;51.030;7.024;2023-02-15T05:20:19;0.23;90.54
72128;DHT22;60000;51.030;7.024;2023-02-15T05:22:44;0.21;90.54
72128;DHT22;60000;51.030;7.024;2023-02-15T05:25:10;0.18;90.54
72128;DHT22;60000;51.030;7.024;2023-02-15T05:27:53;0.11;90.45
72128;DHT22;60000;51.030;7.024;2023-02-15T05:30:37;0.10;90.43
72128;DHT22;60000;51.030;7.024;2023-02-15T05:33:05;0.07;90.37
72128;DHT22;60000;51.030;7.024;2023-02-15T05:35:30;0.07;90.84
72128;DHT22;60000;51.030;7.024;2023-02-15T05:37:56;0.05;90.73
72128;DHT22;60000;51.030;7.024;2023-02-15T05:40:21;0.06;90.91
72128;DHT22;60000;51.030;7.024;2023-02-15T05:42:47;0.07;91.00
72128;DHT22;60000;51.030;7.024;2023-02-15T05:45:12;0.10;90.93
72128;DHT22;60000;51.030;7.024;2023-02-15T05:47:37;0.09;90.87
72128;DHT22;60000;51.030;7.024;2023-02-15T05:50:03;0.09;91.01
72128;DHT22;60000;51.030;7.024;2023-02-15T05:52:28;0.07;90.86
72128;DHT22;60000;51.030;7.024;2023-02-15T05:54:53;0.09;90.80
72128;DHT22;60000;51.030;7.024;2023-02-15T05:57:19;0.07;91.03
72128;DHT22;60000;51.030;7.024;2023-02-15T05:59:44;0.07;91.05
72128;DHT22;60000;51.030;7.024;2023-02-15T06:02:09;0.06;90.86
72128;DHT22;60000;51.030;7.024;2023-02-15T06:04:35;0.00;90.70
72128;DHT22;60000;51.030;7.024;2023-02-15T06:07:00;-0.01;90.93
72128;DHT22;60000;51.030;7.024;2023-02-15T06:09:25;0.00;90.88
72128;DHT22;60000;51.030;7.024;2023-02-15T06:11:51;-0.04;90.98
72128;DHT22;60000;51.030;7.024;2023-02-15T06:14:16;-0.03;91.21
72128;DHT22;60000;51.030;7.024;2023-02-15T06:16:41;-0.03;91.41
72128;DHT22;60000;51.030;7.024;2023-02-15T06:19:07;0.00;91.30
72128;DHT22;60000;51.030;7.024;2023-02-15T06:21:32;0.00;91.46
72128;DHT22;60000;51.030;7.024;2023-02-15T06:23:57;0.02;91.51
72128;DHT22;60000;51.030;7.024;2023-02-15T06:26:23;0.07;91.55
72128;DHT22;60000;51.030;7.024;2023-02-15T06:28:48;0.09;91.52
72128;DHT22;60000;51.030;7.024;2023-02-15T06:31:13;0.06;91.18
72128;DHT22;60000;51.030;7.024;2023-02-15T06:33:39;0.06;91.14
72128;DHT22;60000;51.030;7.024;2023-02-15T06:36:04;0.02;91.01
72128;DHT22;60000;51.030;7.024;2023-02-15T06:38:30;0.00;91.20
72128;DHT22;60000;51.030;7.024;2023-02-15T06:40:55;-0.01;91.10
72128;DHT22;60000;51.030;7.024;2023-02-15T06:43:21;0.00;91.32
72128;DHT22;60000;51.030;7.024;2023-02-15T06:45:46;-0.04;91.22
72128;DHT22;60000;51.030;7.024;2023-02-15T06:48:11;-0.03;91.34
72128;DHT22;60000;51.030;7.024;2023-02-15T06:50:37;-0.01;91.34
72128;DHT22;60000;51.030;7.024;2023-02-15T06:53:02;-0.03;91.15
72128;DHT22;60000;51.030;7.024;2023-02-15T06:55:27;-0.05;91.06
72128;DHT22;60000;51.030;7.024;2023-02-15T06:57:53;-0.05;91.05
72128;DHT22;60000;51.030;7.024;2023-02-15T07:00:18;-0.05;91.21
72128;DHT22;60000;51.030;7.024;2023-02-15T07:02:44;-0.07;91.14
72128;DHT22;60000;51.030;7.024;2023-02-15T07:05:09;-0.05;91.43
72128;DHT22;60000;51.030;7.024;2023-02-15T07:07:35;-0.04;91.51
72128;DHT22;60000;51.030;7.024;2023-02-15T07:10:00;-0.03;91.47
72128;DHT22;60000;51.030;7.024;2023-02-15T07:12:26;0.00;91.67
72128;DHT22;60000;51.030;7.024;2023-02-15T07:15:07;0.05;91.69
72128;DHT22;60000;51.030;7.024;2023-02-15T07:17:35;0.10;91.61
72128;DHT22;60000;51.030;7.024;2023-02-15T07:20:01;0.14;91.62
72128;DHT22;60000;51.030;7.024;2023-02-15T07:22:27;0.18;91.44
72128;DHT22;60000;51.030;7.024;2023-02-15T07:24:52;0.20;91.46
72128;DHT22;60000;51.030;7.024;2023-02-15T07:27:20;0.24;91.47
72128;DHT22;60000;51.030;7.024;2023-02-15T07:29:46;0.26;91.35
72128;DHT22;60000;51.030;7.024;2023-02-15T07:32:11;0.26;91.28
72128;DHT22;60000;51.030;7.024;2023-02-15T07:34:36;0.27;91.26
72128;DHT22;60000;51.030;7.024;2023-02-15T07:37:01;0.31;91.20
72128;DHT22;60000;51.030;7.024;2023-02-15T07:39:27;0.36;91.29
72128;DHT22;60000;51.030;7.024;2023-02-15T07:41:52;0.37;91.21
72128;DHT22;60000;51.030;7.024;2023-02-15T07:44:17;0.44;91.18
72128;DHT22;60000;51.030;7.024;2023-02-15T07:46:43;0.47;91.20
72128;DHT22;60000;51.030;7.024;2023-02-15T07:49:08;0.50;91.18
72128;DHT22;60000;51.030;7.024;2023-02-15T07:51:33;0.53;91.00
72128;DHT22;60000;51.030;7.024;2023-02-15T07:53:59;0.58;91.02
72128;DHT22;60000;51.030;7.024;2023-02-15T07:56:24;0.64;90.92
72128;DHT22;60000;51.030;7.024;2023-02-15T07:58:50;0.68;90.79
72128;DHT22;60000;51.030;7.024;2023-02-15T08:01:30;0.78;90.78
72128;DHT22;60000;51.030;7.024;2023-02-15T08:03:56;0.86;90.75
72128;DHT22;60000;51.030;7.024;2023-02-15T08:06:24;0.95;90.53
72128;DHT22;60000;51.030;7.024;2023-02-15T08:08:49;1.03;90.30
72128;DHT22;60000;51.030;7.024;2023-02-15T08:11:18;1.15;90.06
72128;DHT22;60000;51.030;7.024;2023-02-15T08:14:01;1.43;90.46
72128;DHT22;60000;51.030;7.024;2023-02-15T08:16:38;1.71;90.04
72128;DHT22;60000;51.030;7.024;2023-02-15T08:21:35;2.26;88.05
72128;DHT22;60000;51.030;7.024;2023-02-15T08:24:01;2.53;87.61
72128;DHT22;60000;51.030;7.024;2023-02-15T08:26:27;2.77;85.68
72128;DHT22;60000;51.030;7.024;2023-02-15T08:28:53;3.08;85.36
72128;DHT22;60000;51.030;7.024;2023-02-15T08:31:19;3.35;82.96
72128;DHT22;60000;51.030;7.024;2023-02-15T08:33:46;3.59;82.09
72128;DHT22;60000;51.030;7.024;2023-02-15T08:36:16;3.77;80.83
72128;DHT22;60000;51.030;7.024;2023-02-15T08:38:42;4.05;79.91
72128;DHT22;60000;51.030;7.024;2023-02-15T08:41:13;4.31;78.59
72128;DHT22;60000;51.030;7.024;2023-02-15T08:43:40;4.48;77.16
72128;DHT22;60000;51.030;7.024;2023-02-15T08:46:06;4.69;78.00
72128;DHT22;60000;51.030;7.024;2023-02-15T08:48:32;4.89;76.24
72128;DHT22;60000;51.030;7.024;2023-02-15T08:50:57;5.03;74.28
72128;DHT22;60000;51.030;7.024;2023-02-15T08:53:22;5.09;73.38
72128;DHT22;60000;51.030;7.024;2023-02-15T08:55:57;5.17;72.94
72128;DHT22;60000;51.030;7.024;2023-02-15T08:58:22;5.38;74.47
72128;DHT22;60000;51.030;7.024;2023-02-15T09:00:48;5.64;73.70
72128;DHT22;60000;51.030;7.024;2023-02-15T09:03:13;5.69;71.25
72128;DHT22;60000;51.030;7.024;2023-02-15T09:05:38;5.81;70.20
72128;DHT22;60000;51.030;7.024;2023-02-15T09:08:04;5.99;71.17
72128;DHT22;60000;51.030;7.024;2023-02-15T09:10:29;6.24;71.79
72128;DHT22;60000;51.030;7.024;2023-02-15T09:12:54;6.44;69.46
72128;DHT22;60000;51.030;7.024;2023-02-15T09:15:20;6.58;68.04
72128;DHT22;60000;51.030;7.024;2023-02-15T09:17:45;6.70;67.48
72128;DHT22;60000;51.030;7.024;2023-02-15T09:20:10;6.77;67.28
72128;DHT22;60000;51.030;7.024;2023-02-15T09:22:36;6.92;66.91
72128;DHT22;60000;51.030;7.024;2023-02-15T09:25:01;7.05;66.54
72128;DHT22;60000;51.030;7.024;2023-02-15T09:27:27;7.26;66.56
72128;DHT22;60000;51.030;7.024;2023-02-15T09:29:52;7.43;65.19
72128;DHT22;60000;51.030;7.024;2023-02-15T09:32:17;7.56;64.37
72128;DHT22;60000;51.030;7.024;2023-02-15T09:34:43;7.67;65.18
72128;DHT22;60000;51.030;7.024;2023-02-15T09:37:08;7.84;64.55
72128;DHT22;60000;51.030;7.024;2023-02-15T09:39:37;7.91;62.66
72128;DHT22;60000;51.030;7.024;2023-02-15T09:58:55;8.73;60.57
72128;DHT22;60000;51.030;7.024;2023-02-15T10:01:39;8.83;60.00
72128;DHT22;60000;51.030;7.024;2023-02-15T10:04:33;8.77;59.33
72128;DHT22;60000;51.030;7.024;2023-02-15T10:12:53;8.79;59.93
72128;DHT22;60000;51.030;7.024;2023-02-15T10:15:41;8.85;59.40
72128;DHT22;60000;51.030;7.024;2023-02-15T10:24:21;9.07;58.56
72128;DHT22;60000;51.030;7.024;2023-02-15T10:26:48;9.15;57.33
72128;DHT22;60000;51.030;7.024;2023-02-15T10:29:30;9.18;57.84
72128;DHT22;60000;51.030;7.024;2023-02-15T10:32:21;9.12;57.75
72128;DHT22;60000;51.030;7.024;2023-02-15T10:35:01;9.18;58.43
72128;DHT22;60000;51.030;7.024;2023-02-15T10:45:36;9.63;57.85
72128;DHT22;60000;51.030;7.024;2023-02-15T11:04:39;10.25;55.23
72128;DHT22;60000;51.030;7.024;2023-02-15T11:07:31;10.27;55.06
72128;DHT22;60000;51.030;7.024;2023-02-15T11:12:52;10.42;55.61
72128;DHT22;60000;51.030;7.024;2023-02-15T11:15:29;10.55;55.00
72128;DHT22;60000;51.030;7.024;2023-02-15T11:18:04;10.76;53.66
72128;DHT22;60000;51.030;7.024;2023-02-15T11:20:42;10.96;54.29
72128;DHT22;60000;51.030;7.024;2023-02-15T11:23:15;10.96;53.20
72128;DHT22;60000;51.030;7.024;2023-02-15T11:25:43;10.99;53.32
72128;DHT22;60000;51.030;7.024;2023-02-15T11:28:20;11.09;53.66
72128;DHT22;60000;51.030;7.024;2023-02-15T11:30:51;11.34;54.10
72128;DHT22;60000;51.030;7.024;2023-02-15T11:33:23;11.56;53.11
72128;DHT22;60000;51.030;7.024;2023-02-15T11:35:58;11.74;51.94
72128;DHT22;60000;51.030;7.024;2023-02-15T11:38:28;11.85;50.86
72128;DHT22;60000;51.030;7.024;2023-02-15T11:40:59;11.88;50.70
72128;DHT22;60000;51.030;7.024;2023-02-15T11:43:33;11.97;51.05
72128;DHT22;60000;51.030;7.024;2023-02-15T11:46:01;12.02;50.89
72128;DHT22;60000;51.030;7.024;2023-02-15T11:48:29;12.19;51.31
72128;DHT22;60000;51.030;7.024;2023-02-15T11:50:56;12.22;51.18
72128;DHT22;60000;51.030;7.024;2023-02-15T11:53:22;12.33;51.28
72128;DHT22;60000;51.030;7.024;2023-02-15T11:55:53;12.43;49.77
72128;DHT22;60000;51.030;7.024;2023-02-15T11:58:40;12.32;49.51
72128;DHT22;60000;51.030;7.024;2023-02-15T12:01:12;12.28;49.85
72128;DHT22;60000;51.030;7.024;2023-02-15T12:08:50;12.24;50.02
72128;DHT22;60000;51.030;7.024;2023-02-15T12:11:22;12.28;50.32
72128;DHT22;60000;51.030;7.024;2023-02-15T12:16:25;12.43;50.06
72128;DHT22;60000;51.030;7.024;2023-02-15T12:18:54;12.49;49.83
72128;DHT22;60000;51.030;7.024;2023-02-15T12:21:32;12.56;49.60
72128;DHT22;60000;51.030;7.024;2023-02-15T12:24:08;12.55;48.86
72128;DHT22;60000;51.030;7.024;2023-02-15T12:26:36;12.60;49.79
72128;DHT22;60000;51.030;7.024;2023-02-15T12:29:15;12.68;49.68
72128;DHT22;60000;51.030;7.024;2023-02-15T12:31:46;12.76;49.96
72128;DHT22;60000;51.030;7.024;2023-02-15T12:34:21;12.84;49.83
72128;DHT22;60000;51.030;7.024;2023-02-15T12:36:49;12.81;48.93
72128;DHT22;60000;51.030;7.024;2023-02-15T12:39:22;12.81;48.38
72128;DHT22;60000;51.030;7.024;2023-02-15T12:44:27;12.88;48.78
72128;DHT22;60000;51.030;7.024;2023-02-15T12:49:41;13.11;49.07
72128;DHT22;60000;51.030;7.024;2023-02-15T12:54:46;13.26;48.26
72128;DHT22;60000;51.030;7.024;2023-02-15T12:57:15;13.32;48.50
72128;DHT22;60000;51.030;7.024;2023-02-15T12:59:50;13.34;48.22
72128;DHT22;60000;51.030;7.024;2023-02-15T13:02:34;13.35;47.38
72128;DHT22;60000;51.030;7.024;2023-02-15T13:08:30;13.42;48.47
72128;DHT22;60000;51.030;7.024;2023-02-15T13:10:37;13.38;47.74
72128;DHT22;60000;51.030;7.024;2023-02-15T13:13:11;13.48;48.30
72128;DHT22;60000;51.030;7.024;2023-02-15T13:15:44;13.55;47.78
72128;DHT22;60000;51.030;7.024;2023-02-15T13:18:15;13.67;48.44
72128;DHT22;60000;51.030;7.024;2023-02-15T13:20:42;13.70;47.63
72128;DHT22;60000;51.030;7.024;2023-02-15T13:23:29;13.72;46.83
72128;DHT22;60000;51.030;7.024;2023-02-15T13:25:59;13.76;46.91
72128;DHT22;60000;51.030;7.024;2023-02-15T13:28:37;13.73;46.76
72128;DHT22;60000;51.030;7.024;2023-02-15T13:31:13;13.67;47.36
72128;DHT22;60000;51.030;7.024;2023-02-15T13:33:40;13.70;47.89
72128;DHT22;60000;51.030;7.024;2023-02-15T13:36:23;13.72;47.19
72128;DHT22;60000;51.030;7.024;2023-02-15T13:42:00;13.72;47.10
72128;DHT22;60000;51.030;7.024;2023-02-15T13:56:04;13.83;46.72
72128;DHT22;60000;51.030;7.024;2023-02-15T13:59:07;13.86;46.99
72128;DHT22;60000;51.030;7.024;2023-02-15T14:15:33;13.89;46.46
72128;DHT22;60000;51.030;7.024;2023-02-15T14:24:23;13.82;47.41
72128;DHT22;60000;51.030;7.024;2023-02-15T14:27:23;13.80;47.33
72128;DHT22;60000;51.030;7.024;2023-02-15T14:29:57;13.80;46.99
72128;DHT22;60000;51.030;7.024;2023-02-15T14:32:35;13.80;47.25
72128;DHT22;60000;51.030;7.024;2023-02-15T14:35:13;13.79;47.66
72128;DHT22;60000;51.030;7.024;2023-02-15T14:38:00;13.77;47.60
72128;DHT22;60000;51.030;7.024;2023-02-15T14:40:54;13.72;47.66
72128;DHT22;60000;51.030;7.024;2023-02-15T14:49:27;13.56;47.79
72128;DHT22;60000;51.030;7.024;2023-02-15T14:51:58;13.53;47.94
72128;DHT22;60000;51.030;7.024;2023-02-15T14:59:55;13.31;48.92
72128;DHT22;60000;51.030;7.024;2023-02-15T15:02:45;13.22;48.91
72128;DHT22;60000;51.030;7.024;2023-02-15T15:05:29;13.16;49.38
72128;DHT22;60000;51.030;7.024;2023-02-15T15:07:58;13.10;49.61
72128;DHT22;60000;51.030;7.024;2023-02-15T15:10:41;13.00;49.74
72128;DHT22;60000;51.030;7.024;2023-02-15T15:18:50;12.81;50.52
72128;DHT22;60000;51.030;7.024;2023-02-15T15:32:50;12.43;51.51
72128;DHT22;60000;51.030;7.024;2023-02-15T15:35:41;12.37;51.83
72128;DHT22;60000;51.030;7.024;2023-02-15T15:41:32;12.15;52.69
72128;DHT22;60000;51.030;7.024;2023-02-15T15:47:08;12.01;53.17
72128;DHT22;60000;51.030;7.024;2023-02-15T15:49:39;11.91;53.53
72128;DHT22;60000;51.030;7.024;2023-02-15T15:52:18;11.78;53.69
72128;DHT22;60000;51.030;7.024;2023-02-15T15:54:47;11.70;54.08
72128;DHT22;60000;51.030;7.024;2023-02-15T15:57:33;11.60;54.36
72128;DHT22;60000;51.030;7.024;2023-02-15T16:03:22;11.46;54.69
72128;DHT22;60000;51.030;7.024;2023-02-15T16:05:47;11.40;54.85
72128;DHT22;60000;51.030;7.024;2023-02-15T16:08:30;11.27;55.24
72128;DHT22;60000;51.030;7.024;2023-02-15T16:10:56;11.17;55.46
72128;DHT22;60000;51.030;7.024;2023-02-15T16:13:22;11.10;55.89
72128;DHT22;60000;51.030;7.024;2023-02-15T16:15:50;10.99;56.06
72128;DHT22;60000;51.030;7.024;2023-02-15T16:18:19;10.93;56.54
72128;DHT22;60000;51.030;7.024;2023-02-15T16:20:54;10.86;56.80
72128;DHT22;60000;51.030;7.024;2023-02-15T16:28:54;10.65;57.53
72128;DHT22;60000;51.030;7.024;2023-02-15T16:31:20;10.62;57.74
72128;DHT22;60000;51.030;7.024;2023-02-15T16:33:48;10.59;57.94
72128;DHT22;60000;51.030;7.024;2023-02-15T16:36:22;10.49;58.35
72128;DHT22;60000;51.030;7.024;2023-02-15T16:41:21;10.36;58.81
72128;DHT22;60000;51.030;7.024;2023-02-15T16:43:49;10.25;59.08
72128;DHT22;60000;51.030;7.024;2023-02-15T16:46:26;10.17;59.14
72128;DHT22;60000;51.030;7.024;2023-02-15T16:48:55;10.06;59.56
72128;DHT22;60000;51.030;7.024;2023-02-15T16:51:24;9.97;59.82
72128;DHT22;60000;51.030;7.024;2023-02-15T16:53:51;9.91;60.03
72128;DHT22;60000;51.030;7.024;2023-02-15T16:56:26;9.87;60.45
72128;DHT22;60000;51.030;7.024;2023-02-15T16:58:53;9.79;60.62
72128;DHT22;60000;51.030;7.024;2023-02-15T17:01:21;9.73;60.90
72128;DHT22;60000;51.030;7.024;2023-02-15T17:03:50;9.68;61.09
72128;DHT22;60000;51.030;7.024;2023-02-15T17:06:22;9.62;61.13
72128;DHT22;60000;51.030;7.024;2023-02-15T17:08:47;9.60;61.30
72128;DHT22;60000;51.030;7.024;2023-02-15T17:11:20;9.53;61.65
72128;DHT22;60000;51.030;7.024;2023-02-15T17:19:20;9.27;62.29
72128;DHT22;60000;51.030;7.024;2023-02-15T17:21:56;9.27;62.62
72128;DHT22;60000;51.030;7.024;2023-02-15T17:24:42;9.17;62.73
72128;DHT22;60000;51.030;7.024;2023-02-15T17:27:34;9.08;63.26
72128;DHT22;60000;51.030;7.024;2023-02-15T17:30:02;9.10;63.48
72128;DHT22;60000;51.030;7.024;2023-02-15T17:32:30;9.10;63.44
72128;DHT22;60000;51.030;7.024;2023-02-15T17:37:32;8.92;63.40
72128;DHT22;60000;51.030;7.024;2023-02-15T17:40:25;8.80;63.73
72128;DHT22;60000;51.030;7.024;2023-02-15T17:42:51;8.71;64.09
72128;DHT22;60000;51.030;7.024;2023-02-15T17:45:17;8.60;64.20
72128;DHT22;60000;51.030;7.024;2023-02-15T17:47:43;8.52;64.83
72128;DHT22;60000;51.030;7.024;2023-02-15T17:50:26;8.42;64.97
72128;DHT22;60000;51.030;7.024;2023-02-15T17:52:53;8.36;65.35
72128;DHT22;60000;51.030;7.024;2023-02-15T17:55:21;8.33;65.45
72128;DHT22;60000;51.030;7.024;2023-02-15T17:58:15;8.31;65.95
72128;DHT22;60000;51.030;7.024;2023-02-15T18:00:43;8.25;65.99
72128;DHT22;60000;51.030;7.024;2023-02-15T18:03:48;8.16;66.35
72128;DHT22;60000;51.030;7.024;2023-02-15T18:06:34;8.13;66.69
72128;DHT22;60000;51.030;7.024;2023-02-15T18:09:20;8.11;66.68
72128;DHT22;60000;51.030;7.024;2023-02-15T18:14:43;8.06;67.13
72128;DHT22;60000;51.030;7.024;2023-02-15T18:17:11;8.01;67.56
72128;DHT22;60000;51.030;7.024;2023-02-15T18:19:38;8.01;67.51
72128;DHT22;60000;51.030;7.024;2023-02-15T18:22:11;7.97;67.52
72128;DHT22;60000;51.030;7.024;2023-02-15T18:24:37;7.97;67.65
72128;DHT22;60000;51.030;7.024;2023-02-15T18:27:03;7.95;67.76
72128;DHT22;60000;51.030;7.024;2023-02-15T18:29:29;7.92;67.83
72128;DHT22;60000;51.030;7.024;2023-02-15T18:31:55;7.88;67.96
72128;DHT22;60000;51.030;7.024;2023-02-15T18:34:30;7.84;67.90
72128;DHT22;60000;51.030;7.024;2023-02-15T18:36:57;7.77;67.85
72128;DHT22;60000;51.030;7.024;2023-02-15T18:39:26;7.71;68.10
72128;DHT22;60000;51.030;7.024;2023-02-15T18:41:54;7.66;68.28
72128;DHT22;60000;51.030;7.024;2023-02-15T18:44:19;7.66;68.75
72128;DHT22;60000;51.030;7.024;2023-02-15T18:46:44;7.64;68.81
72128;DHT22;60000;51.030;7.024;2023-02-15T18:49:10;7.60;68.97
72128;DHT22;60000;51.030;7.024;2023-02-15T18:51:35;7.63;69.06
72128;DHT22;60000;51.030;7.024;2023-02-15T18:54:05;7.61;69.12
72128;DHT22;60000;51.030;7.024;2023-02-15T18:56:36;7.64;69.21
72128;DHT22;60000;51.030;7.024;2023-02-15T18:59:01;7.61;69.17
72128;DHT22;60000;51.030;7.024;2023-02-15T19:01:27;7.61;69.17
72128;DHT22;60000;51.030;7.024;2023-02-15T19:03:52;7.60;69.34
72128;DHT22;60000;51.030;7.024;2023-02-15T19:06:21;7.60;69.22
72128;DHT22;60000;51.030;7.024;2023-02-15T19:08:50;7.54;69.20
72128;DHT22;60000;51.030;7.024;2023-02-15T19:11:18;7.49;69.56
72128;DHT22;60000;51.030;7.024;2023-02-15T19:13:45;7.46;69.69
72128;DHT22;60000;51.030;7.024;2023-02-15T19:16:32;7.42;69.67
72128;DHT22;60000;51.030;7.024;2023-02-15T19:18:58;7.39;69.86